sensor_id;sensor_type;location;lat;lon;timestamp;P1;durP1;ratioP1;P2;durP2;ratioP2
29026;SDS011;16120;48.608;9.092;2023-03-02T00:01:46;104.70;;;21.20;;
29026;SDS011;16120;48.608;9.092;2023-03-02T00:05:43;99.00;;;19.50;;
29026;SDS011;16120;48.608;9.092;2023-03-02T00:09:39;101.67;;;19.87;;
29026;SDS011;16120;48.608;9.092;2023-03-02T00:13:35;98.90;;;19.30;;
29026;SDS011;16120;48.608;9.092;2023-03-02T00:17:32;103.47;;;18.67;;
29026;SDS011;16120;48.608;9.092;2023-03-02T00:21:29;100.13;;;19.50;;
29026;SDS011;16120;48.608;9.092;2023-03-02T00:25:24;101.53;;;19.73;;
29026;SDS011;16120;48.608;9.092;2023-03-02T00:29:19;97.93;;;17.97;;
29026;SDS011;16120;48.608;9.092;2023-03-02T00:33:14;101.17;;;20.83;;
29026;SDS011;16120;48.608;9.092;2023-03-02T00:37:11;104.47;;;21.80;;
29026;SDS011;16120;48.608;9.092;2023-03-02T00:41:06;96.60;;;19.43;;
29026;SDS011;16120;48.608;9.092;2023-03-02T00:45:01;98.20;;;19.57;;
29026;SDS011;16120;48.608;9.092;2023-03-02T00:48:56;98.57;;;19.37;;
29026;SDS011;16120;48.608;9.092;2023-03-02T00:52:53;100.63;;;19.83;;
29026;SDS011;16120;48.608;9.092;2023-03-02T00:56:48;99.10;;;19.10;;
29026;SDS011;16120;48.608;9.092;2023-03-02T01:00:44;98.80;;;18.40;;
29026;SDS011;16120;48.608;9.092;2023-03-02T01:04:40;102.55;;;19.67;;
29026;SDS011;16120;48.608;9.092;2023-03-02T01:08:36;105.23;;;20.43;;
29026;SDS011;16120;48.608;9.092;2023-03-02T01:12:31;102.47;;;21.07;;
29026;SDS011;16120;48.608;9.092;2023-03-02T01:16:27;100.10;;;19.60;;
29026;SDS011;16120;48.608;9.092;2023-03-02T01:20:22;101.43;;;20.57;;
29026;SDS011;16120;48.608;9.092;2023-03-02T01:24:18;97.93;;;18.00;;
29026;SDS011;16120;48.608;9.092;2023-03-02T01:28:14;97.37;;;19.03;;
29026;SDS011;16120;48.608;9.092;2023-03-02T01:32:09;101.00;;;19.60;;
29026;SDS011;16120;48.608;9.092;2023-03-02T01:36:04;100.13;;;19.50;;
29026;SDS011;16120;48.608;9.092;2023-03-02T01:40:01;97.80;;;19.77;;
29026;SDS011;16120;48.608;9.092;2023-03-02T01:43:56;108.50;;;21.40;;
29026;SDS011;16120;48.608;9.092;2023-03-02T01:47:52;103.37;;;21.13;;
29026;SDS011;16120;48.608;9.092;2023-03-02T01:51:47;100.20;;;18.90;;
29026;SDS011;16120;48.608;9.092;2023-03-02T01:55:43;102.22;;;19.58;;
29026;SDS011;16120;48.608;9.092;2023-03-02T01:59:39;102.73;;;19.73;;
29026;SDS011;16120;48.608;9.092;2023-03-02T02:03:34;98.57;;;18.00;;
29026;SDS011;16120;48.608;9.092;2023-03-02T02:07:30;102.70;;;21.57;;
29026;SDS011;16120;48.608;9.092;2023-03-02T02:11:26;101.57;;;18.63;;
29026;SDS011;16120;48.608;9.092;2023-03-02T02:15:22;98.27;;;19.30;;
29026;SDS011;16120;48.608;9.092;2023-03-02T02:19:20;102.27;;;19.87;;
29026;SDS011;16120;48.608;9.092;2023-03-02T02:23:25;107.40;;;21.70;;
29026;SDS011;16120;48.608;9.092;2023-03-02T02:27:22;102.57;;;20.73;;
29026;SDS011;16120;48.608;9.092;2023-03-02T02:31:19;98.00;;;19.00;;
29026;SDS011;16120;48.608;9.092;2023-03-02T02:35:15;100.43;;;20.60;;
29026;SDS011;16120;48.608;9.092;2023-03-02T02:39:14;101.53;;;20.17;;
29026;SDS011;16120;48.608;9.092;2023-03-02T02:43:13;108.93;;;21.60;;
29026;SDS011;16120;48.608;9.092;2023-03-02T02:47:13;102.03;;;20.70;;
29026;SDS011;16120;48.608;9.092;2023-03-02T02:51:09;100.97;;;19.50;;
29026;SDS011;16120;48.608;9.092;2023-03-02T02:55:08;100.47;;;20.17;;
29026;SDS011;16120;48.608;9.092;2023-03-02T02:59:11;104.30;;;21.50;;
29026;SDS011;16120;48.608;9.092;2023-03-02T03:03:10;102.83;;;21.30;;
29026;SDS011;16120;48.608;9.092;2023-03-02T03:07:08;103.00;;;20.87;;
29026;SDS011;16120;48.608;9.092;2023-03-02T03:11:04;102.50;;;19.47;;
29026;SDS011;16120;48.608;9.092;2023-03-02T03:15:00;101.80;;;19.87;;
29026;SDS011;16120;48.608;9.092;2023-03-02T03:19:02;103.47;;;19.43;;
29026;SDS011;16120;48.608;9.092;2023-03-02T03:22:59;100.73;;;18.67;;
29026;SDS011;16120;48.608;9.092;2023-03-02T03:26:54;101.70;;;20.93;;
29026;SDS011;16120;48.608;9.092;2023-03-02T03:30:51;99.63;;;18.93;;
29026;SDS011;16120;48.608;9.092;2023-03-02T03:34:46;103.23;;;18.30;;
29026;SDS011;16120;48.608;9.092;2023-03-02T03:38:42;98.57;;;19.50;;
29026;SDS011;16120;48.608;9.092;2023-03-02T03:42:37;97.47;;;17.37;;
29026;SDS011;16120;48.608;9.092;2023-03-02T03:46:34;102.10;;;21.00;;
29026;SDS011;16120;48.608;9.092;2023-03-02T03:50:29;107.73;;;20.47;;
29026;SDS011;16120;48.608;9.092;2023-03-02T03:54:24;97.25;;;19.38;;
29026;SDS011;16120;48.608;9.092;2023-03-02T03:58:19;101.23;;;21.10;;
29026;SDS011;16120;48.608;9.092;2023-03-02T04:02:16;105.27;;;21.83;;
29026;SDS011;16120;48.608;9.092;2023-03-02T04:06:11;102.17;;;18.97;;
29026;SDS011;16120;48.608;9.092;2023-03-02T04:10:07;107.43;;;20.95;;
29026;SDS011;16120;48.608;9.092;2023-03-02T04:14:03;101.23;;;20.20;;
29026;SDS011;16120;48.608;9.092;2023-03-02T04:17:59;104.33;;;20.77;;
29026;SDS011;16120;48.608;9.092;2023-03-02T04:21:55;103.97;;;20.60;;
29026;SDS011;16120;48.608;9.092;2023-03-02T04:25:50;102.60;;;20.25;;
29026;SDS011;16120;48.608;9.092;2023-03-02T04:29:45;103.60;;;20.60;;
29026;SDS011;16120;48.608;9.092;2023-03-02T04:33:42;101.33;;;19.93;;
29026;SDS011;16120;48.608;9.092;2023-03-02T04:37:37;103.70;;;19.10;;
29026;SDS011;16120;48.608;9.092;2023-03-02T04:41:33;103.00;;;20.17;;
29026;SDS011;16120;48.608;9.092;2023-03-02T04:45:28;102.10;;;20.70;;
29026;SDS011;16120;48.608;9.092;2023-03-02T04:49:25;112.55;;;21.05;;
29026;SDS011;16120;48.608;9.092;2023-03-02T04:53:20;106.53;;;20.30;;
29026;SDS011;16120;48.608;9.092;2023-03-02T04:57:15;106.90;;;21.63;;
29026;SDS011;16120;48.608;9.092;2023-03-02T05:01:11;104.70;;;19.95;;
29026;SDS011;16120;48.608;9.092;2023-03-02T05:05:08;101.30;;;20.13;;
29026;SDS011;16120;48.608;9.092;2023-03-02T05:09:07;102.23;;;21.60;;
29026;SDS011;16120;48.608;9.092;2023-03-02T05:13:02;103.50;;;20.40;;
29026;SDS011;16120;48.608;9.092;2023-03-02T05:16:57;99.20;;;20.60;;
29026;SDS011;16120;48.608;9.092;2023-03-02T05:20:54;104.33;;;21.97;;
29026;SDS011;16120;48.608;9.092;2023-03-02T05:24:49;104.40;;;22.53;;
29026;SDS011;16120;48.608;9.092;2023-03-02T05:28:44;103.37;;;23.37;;
29026;SDS011;16120;48.608;9.092;2023-03-02T05:32:40;109.10;;;23.95;;
29026;SDS011;16120;48.608;9.092;2023-03-02T05:36:36;112.82;;;22.85;;
29026;SDS011;16120;48.608;9.092;2023-03-02T05:40:32;105.40;;;23.20;;
29026;SDS011;16120;48.608;9.092;2023-03-02T05:44:27;106.70;;;21.77;;
29026;SDS011;16120;48.608;9.092;2023-03-02T05:48:22;109.30;;;26.58;;
29026;SDS011;16120;48.608;9.092;2023-03-02T05:52:19;112.82;;;26.63;;
29026;SDS011;16120;48.608;9.092;2023-03-02T05:56:14;108.77;;;24.50;;
29026;SDS011;16120;48.608;9.092;2023-03-02T06:00:10;110.00;;;24.52;;
29026;SDS011;16120;48.608;9.092;2023-03-02T06:04:05;114.17;;;26.67;;
29026;SDS011;16120;48.608;9.092;2023-03-02T06:08:02;108.30;;;24.53;;
29026;SDS011;16120;48.608;9.092;2023-03-02T06:11:57;111.87;;;26.27;;
29026;SDS011;16120;48.608;9.092;2023-03-02T06:15:52;108.03;;;25.40;;
29026;SDS011;16120;48.608;9.092;2023-03-02T06:19:48;112.23;;;27.00;;
29026;SDS011;16120;48.608;9.092;2023-03-02T06:23:44;108.57;;;25.00;;
29026;SDS011;16120;48.608;9.092;2023-03-02T06:27:40;110.47;;;25.30;;
29026;SDS011;16120;48.608;9.092;2023-03-02T06:31:35;108.97;;;24.50;;
29026;SDS011;16120;48.608;9.092;2023-03-02T06:35:30;118.40;;;26.40;;
29026;SDS011;16120;48.608;9.092;2023-03-02T06:39:27;112.07;;;25.63;;
29026;SDS011;16120;48.608;9.092;2023-03-02T06:43:22;107.97;;;25.77;;
29026;SDS011;16120;48.608;9.092;2023-03-02T06:47:17;108.50;;;25.17;;
29026;SDS011;16120;48.608;9.092;2023-03-02T06:51:15;108.50;;;24.07;;
29026;SDS011;16120;48.608;9.092;2023-03-02T06:55:12;117.53;;;26.33;;
29026;SDS011;16120;48.608;9.092;2023-03-02T06:59:07;115.50;;;25.33;;
29026;SDS011;16120;48.608;9.092;2023-03-02T07:03:02;114.50;;;24.57;;
29026;SDS011;16120;48.608;9.092;2023-03-02T07:06:57;111.55;;;24.50;;
29026;SDS011;16120;48.608;9.092;2023-03-02T07:10:54;108.63;;;23.83;;
29026;SDS011;16120;48.608;9.092;2023-03-02T07:14:49;111.00;;;25.40;;
29026;SDS011;16120;48.608;9.092;2023-03-02T07:18:44;107.93;;;24.17;;
29026;SDS011;16120;48.608;9.092;2023-03-02T07:22:39;111.30;;;23.90;;
29026;SDS011;16120;48.608;9.092;2023-03-02T07:26:36;108.10;;;23.87;;
29026;SDS011;16120;48.608;9.092;2023-03-02T07:30:31;114.17;;;25.70;;
29026;SDS011;16120;48.608;9.092;2023-03-02T07:34:27;111.60;;;24.73;;
29026;SDS011;16120;48.608;9.092;2023-03-02T07:38:22;111.60;;;24.10;;
29026;SDS011;16120;48.608;9.092;2023-03-02T07:42:18;113.77;;;25.23;;
29026;SDS011;16120;48.608;9.092;2023-03-02T07:46:14;119.90;;;24.40;;
29026;SDS011;16120;48.608;9.092;2023-03-02T07:50:09;111.50;;;24.10;;
29026;SDS011;16120;48.608;9.092;2023-03-02T07:54:05;106.30;;;22.37;;
29026;SDS011;16120;48.608;9.092;2023-03-02T07:58:01;110.43;;;25.37;;
29026;SDS011;16120;48.608;9.092;2023-03-02T08:01:56;116.00;;;23.17;;
29026;SDS011;16120;48.608;9.092;2023-03-02T08:05:52;105.40;;;23.15;;
29026;SDS011;16120;48.608;9.092;2023-03-02T08:09:47;106.67;;;22.97;;
29026;SDS011;16120;48.608;9.092;2023-03-02T08:13:43;108.83;;;23.63;;
29026;SDS011;16120;48.608;9.092;2023-03-02T08:17:39;106.63;;;21.50;;
29026;SDS011;16120;48.608;9.092;2023-03-02T08:21:34;109.93;;;24.10;;
29026;SDS011;16120;48.608;9.092;2023-03-02T08:25:29;107.47;;;23.60;;
29026;SDS011;16120;48.608;9.092;2023-03-02T08:29:26;112.00;;;25.63;;
29026;SDS011;16120;48.608;9.092;2023-03-02T08:33:21;114.43;;;24.20;;
29026;SDS011;16120;48.608;9.092;2023-03-02T08:37:16;115.23;;;27.30;;
29026;SDS011;16120;48.608;9.092;2023-03-02T08:41:13;116.57;;;27.23;;
29026;SDS011;16120;48.608;9.092;2023-03-02T08:45:10;117.83;;;26.20;;
29026;SDS011;16120;48.608;9.092;2023-03-02T08:49:05;110.60;;;25.47;;
29026;SDS011;16120;48.608;9.092;2023-03-02T08:53:00;112.70;;;25.03;;
29026;SDS011;16120;48.608;9.092;2023-03-02T08:56:55;110.73;;;24.10;;
29026;SDS011;16120;48.608;9.092;2023-03-02T09:00:52;109.73;;;23.63;;
29026;SDS011;16120;48.608;9.092;2023-03-02T09:04:47;106.20;;;22.00;;
29026;SDS011;16120;48.608;9.092;2023-03-02T09:08:42;107.77;;;21.20;;
29026;SDS011;16120;48.608;9.092;2023-03-02T09:12:38;106.70;;;22.92;;
29026;SDS011;16120;48.608;9.092;2023-03-02T09:16:34;107.87;;;23.37;;
29026;SDS011;16120;48.608;9.092;2023-03-02T09:20:29;108.73;;;22.10;;
29026;SDS011;16120;48.608;9.092;2023-03-02T09:24:25;106.53;;;22.73;;
29026;SDS011;16120;48.608;9.092;2023-03-02T09:28:20;103.00;;;21.30;;
29026;SDS011;16120;48.608;9.092;2023-03-02T09:32:17;109.40;;;21.57;;
29026;SDS011;16120;48.608;9.092;2023-03-02T09:36:14;103.80;;;20.23;;
29026;SDS011;16120;48.608;9.092;2023-03-02T09:40:14;106.40;;;21.23;;
29026;SDS011;16120;48.608;9.092;2023-03-02T09:44:14;107.37;;;22.23;;
29026;SDS011;16120;48.608;9.092;2023-03-02T09:48:15;106.17;;;20.33;;
29026;SDS011;16120;48.608;9.092;2023-03-02T09:52:15;102.97;;;21.33;;
29026;SDS011;16120;48.608;9.092;2023-03-02T09:56:14;114.27;;;21.03;;
29026;SDS011;16120;48.608;9.092;2023-03-02T10:00:10;111.13;;;20.27;;
29026;SDS011;16120;48.608;9.092;2023-03-02T10:04:16;105.47;;;21.13;;
29026;SDS011;16120;48.608;9.092;2023-03-02T10:08:12;117.33;;;28.67;;
29026;SDS011;16120;48.608;9.092;2023-03-02T10:12:16;104.23;;;19.77;;
29026;SDS011;16120;48.608;9.092;2023-03-02T10:16:20;107.30;;;20.80;;
29026;SDS011;16120;48.608;9.092;2023-03-02T10:20:20;105.57;;;21.03;;
29026;SDS011;16120;48.608;9.092;2023-03-02T10:24:20;103.27;;;19.90;;
29026;SDS011;16120;48.608;9.092;2023-03-02T10:28:18;105.10;;;21.00;;
29026;SDS011;16120;48.608;9.092;2023-03-02T10:32:16;103.40;;;20.80;;
29026;SDS011;16120;48.608;9.092;2023-03-02T10:36:17;105.80;;;19.90;;
29026;SDS011;16120;48.608;9.092;2023-03-02T10:40:25;105.77;;;22.30;;
29026;SDS011;16120;48.608;9.092;2023-03-02T10:44:23;102.83;;;19.60;;
29026;SDS011;16120;48.608;9.092;2023-03-02T10:48:19;107.30;;;22.30;;
29026;SDS011;16120;48.608;9.092;2023-03-02T10:52:16;100.53;;;19.27;;
29026;SDS011;16120;48.608;9.092;2023-03-02T10:56:13;104.70;;;20.07;;
29026;SDS011;16120;48.608;9.092;2023-03-02T11:00:13;109.67;;;22.60;;
29026;SDS011;16120;48.608;9.092;2023-03-02T11:04:10;110.90;;;22.40;;
29026;SDS011;16120;48.608;9.092;2023-03-02T11:08:09;110.50;;;21.57;;
29026;SDS011;16120;48.608;9.092;2023-03-02T11:12:04;101.80;;;19.90;;
29026;SDS011;16120;48.608;9.092;2023-03-02T11:16:19;106.50;;;21.83;;
29026;SDS011;16120;48.608;9.092;2023-03-02T11:20:16;102.23;;;20.77;;
29026;SDS011;16120;48.608;9.092;2023-03-02T11:24:15;105.80;;;21.27;;
29026;SDS011;16120;48.608;9.092;2023-03-02T11:28:16;105.87;;;21.63;;
29026;SDS011;16120;48.608;9.092;2023-03-02T11:32:16;103.77;;;20.73;;
29026;SDS011;16120;48.608;9.092;2023-03-02T11:36:14;104.23;;;19.67;;
29026;SDS011;16120;48.608;9.092;2023-03-02T11:40:16;99.77;;;20.67;;
29026;SDS011;16120;48.608;9.092;2023-03-02T11:44:13;105.30;;;19.70;;
29026;SDS011;16120;48.608;9.092;2023-03-02T11:48:11;103.57;;;21.40;;
29026;SDS011;16120;48.608;9.092;2023-03-02T11:52:13;107.10;;;22.20;;
29026;SDS011;16120;48.608;9.092;2023-03-02T11:56:11;102.10;;;21.20;;
29026;SDS011;16120;48.608;9.092;2023-03-02T12:00:10;108.03;;;21.37;;
29026;SDS011;16120;48.608;9.092;2023-03-02T12:04:08;106.30;;;21.27;;
29026;SDS011;16120;48.608;9.092;2023-03-02T12:08:04;102.70;;;22.20;;
29026;SDS011;16120;48.608;9.092;2023-03-02T12:12:10;101.90;;;21.13;;
29026;SDS011;16120;48.608;9.092;2023-03-02T12:16:17;103.67;;;21.73;;
29026;SDS011;16120;48.608;9.092;2023-03-02T12:20:23;108.50;;;23.03;;
29026;SDS011;16120;48.608;9.092;2023-03-02T12:24:22;104.30;;;21.33;;
29026;SDS011;16120;48.608;9.092;2023-03-02T12:28:26;102.90;;;21.30;;
29026;SDS011;16120;48.608;9.092;2023-03-02T12:32:23;103.60;;;19.73;;
29026;SDS011;16120;48.608;9.092;2023-03-02T12:36:25;111.47;;;21.17;;
29026;SDS011;16120;48.608;9.092;2023-03-02T12:40:26;104.63;;;20.90;;
29026;SDS011;16120;48.608;9.092;2023-03-02T12:44:32;98.27;;;20.17;;
29026;SDS011;16120;48.608;9.092;2023-03-02T12:48:30;109.90;;;22.10;;
29026;SDS011;16120;48.608;9.092;2023-03-02T12:52:27;108.57;;;22.40;;
29026;SDS011;16120;48.608;9.092;2023-03-02T12:56:24;102.70;;;20.27;;
29026;SDS011;16120;48.608;9.092;2023-03-02T13:00:21;102.87;;;20.47;;
29026;SDS011;16120;48.608;9.092;2023-03-02T13:04:21;101.10;;;20.50;;
29026;SDS011;16120;48.608;9.092;2023-03-02T13:08:17;99.87;;;20.80;;
29026;SDS011;16120;48.608;9.092;2023-03-02T13:12:13;99.50;;;19.70;;
29026;SDS011;16120;48.608;9.092;2023-03-02T13:16:18;108.07;;;20.83;;
29026;SDS011;16120;48.608;9.092;2023-03-02T13:20:14;107.50;;;20.37;;
29026;SDS011;16120;48.608;9.092;2023-03-02T13:24:19;112.23;;;21.73;;
29026;SDS011;16120;48.608;9.092;2023-03-02T13:28:26;107.27;;;22.60;;
29026;SDS011;16120;48.608;9.092;2023-03-02T13:32:24;101.97;;;21.07;;
29026;SDS011;16120;48.608;9.092;2023-03-02T13:36:20;103.87;;;20.43;;
29026;SDS011;16120;48.608;9.092;2023-03-02T13:44:27;107.10;;;20.33;;
29026;SDS011;16120;48.608;9.092;2023-03-02T13:48:23;100.70;;;20.37;;
29026;SDS011;16120;48.608;9.092;2023-03-02T13:52:21;102.50;;;21.37;;
29026;SDS011;16120;48.608;9.092;2023-03-02T13:56:17;101.37;;;20.50;;
29026;SDS011;16120;48.608;9.092;2023-03-02T14:00:13;106.07;;;23.27;;
29026;SDS011;16120;48.608;9.092;2023-03-02T14:04:11;105.43;;;22.00;;
29026;SDS011;16120;48.608;9.092;2023-03-02T14:08:06;100.60;;;20.73;;
29026;SDS011;16120;48.608;9.092;2023-03-02T14:12:01;107.70;;;21.90;;
29026;SDS011;16120;48.608;9.092;2023-03-02T14:15:59;102.57;;;21.00;;
29026;SDS011;16120;48.608;9.092;2023-03-02T14:19:55;104.07;;;22.27;;
29026;SDS011;16120;48.608;9.092;2023-03-02T14:23:51;105.23;;;21.37;;
29026;SDS011;16120;48.608;9.092;2023-03-02T14:27:46;100.17;;;21.10;;
29026;SDS011;16120;48.608;9.092;2023-03-02T14:31:41;105.40;;;22.10;;
29026;SDS011;16120;48.608;9.092;2023-03-02T14:35:38;102.33;;;21.53;;
29026;SDS011;16120;48.608;9.092;2023-03-02T14:39:34;103.10;;;20.77;;
29026;SDS011;16120;48.608;9.092;2023-03-02T14:43:29;106.20;;;20.83;;
29026;SDS011;16120;48.608;9.092;2023-03-02T14:47:24;106.70;;;22.03;;
29026;SDS011;16120;48.608;9.092;2023-03-02T14:51:23;104.10;;;21.10;;
29026;SDS011;16120;48.608;9.092;2023-03-02T14:55:19;105.60;;;21.90;;
29026;SDS011;16120;48.608;9.092;2023-03-02T14:59:16;108.53;;;24.10;;
29026;SDS011;16120;48.608;9.092;2023-03-02T15:03:12;108.43;;;21.47;;
29026;SDS011;16120;48.608;9.092;2023-03-02T15:07:10;104.73;;;21.63;;
29026;SDS011;16120;48.608;9.092;2023-03-02T15:11:05;111.03;;;21.70;;
29026;SDS011;16120;48.608;9.092;2023-03-02T15:15:01;107.10;;;22.83;;
29026;SDS011;16120;48.608;9.092;2023-03-02T15:18:56;105.17;;;22.83;;
29026;SDS011;16120;48.608;9.092;2023-03-02T15:22:52;107.33;;;23.20;;
29026;SDS011;16120;48.608;9.092;2023-03-02T15:26:48;111.43;;;23.17;;
29026;SDS011;16120;48.608;9.092;2023-03-02T15:30:43;115.60;;;22.10;;
29026;SDS011;16120;48.608;9.092;2023-03-02T15:34:38;107.30;;;22.27;;
29026;SDS011;16120;48.608;9.092;2023-03-02T15:38:35;110.13;;;23.80;;
29026;SDS011;16120;48.608;9.092;2023-03-02T15:42:30;106.47;;;22.70;;
29026;SDS011;16120;48.608;9.092;2023-03-02T15:46:25;104.80;;;21.47;;
29026;SDS011;16120;48.608;9.092;2023-03-02T15:50:23;99.90;;;20.97;;
29026;SDS011;16120;48.608;9.092;2023-03-02T15:54:20;105.10;;;21.50;;
29026;SDS011;16120;48.608;9.092;2023-03-02T15:58:15;109.57;;;21.80;;
29026;SDS011;16120;48.608;9.092;2023-03-02T16:02:16;106.50;;;23.03;;
29026;SDS011;16120;48.608;9.092;2023-03-02T16:06:11;101.93;;;21.50;;
29026;SDS011;16120;48.608;9.092;2023-03-02T16:10:08;104.60;;;21.20;;
29026;SDS011;16120;48.608;9.092;2023-03-02T16:14:04;104.57;;;21.47;;
29026;SDS011;16120;48.608;9.092;2023-03-02T16:17:59;103.27;;;21.40;;
29026;SDS011;16120;48.608;9.092;2023-03-02T16:21:54;105.17;;;21.83;;
29026;SDS011;16120;48.608;9.092;2023-03-02T16:25:51;100.47;;;20.63;;
29026;SDS011;16120;48.608;9.092;2023-03-02T16:29:46;106.30;;;22.50;;
29026;SDS011;16120;48.608;9.092;2023-03-02T16:33:41;103.07;;;21.00;;
29026;SDS011;16120;48.608;9.092;2023-03-02T16:37:37;106.03;;;22.80;;
29026;SDS011;16120;48.608;9.092;2023-03-02T16:41:33;106.30;;;23.00;;
29026;SDS011;16120;48.608;9.092;2023-03-02T16:45:28;106.50;;;23.40;;
29026;SDS011;16120;48.608;9.092;2023-03-02T16:49:24;106.10;;;22.20;;
29026;SDS011;16120;48.608;9.092;2023-03-02T16:53:19;108.23;;;22.47;;
29026;SDS011;16120;48.608;9.092;2023-03-02T16:57:15;111.50;;;21.50;;
29026;SDS011;16120;48.608;9.092;2023-03-02T17:01:11;107.63;;;21.87;;
29026;SDS011;16120;48.608;9.092;2023-03-02T17:05:07;104.73;;;23.57;;
29026;SDS011;16120;48.608;9.092;2023-03-02T17:09:02;108.00;;;22.83;;
29026;SDS011;16120;48.608;9.092;2023-03-02T17:12:59;110.03;;;22.20;;
29026;SDS011;16120;48.608;9.092;2023-03-02T17:16:54;112.80;;;24.00;;
29026;SDS011;16120;48.608;9.092;2023-03-02T17:20:50;105.53;;;21.90;;
29026;SDS011;16120;48.608;9.092;2023-03-02T17:24:45;109.07;;;21.90;;
29026;SDS011;16120;48.608;9.092;2023-03-02T17:28:41;109.35;;;22.80;;
29026;SDS011;16120;48.608;9.092;2023-03-02T17:32:36;112.27;;;23.47;;
29026;SDS011;16120;48.608;9.092;2023-03-02T17:36:32;105.25;;;21.52;;
29026;SDS011;16120;48.608;9.092;2023-03-02T17:40:27;112.65;;;23.48;;
29026;SDS011;16120;48.608;9.092;2023-03-02T17:44:23;107.93;;;22.90;;
29026;SDS011;16120;48.608;9.092;2023-03-02T17:48:19;105.17;;;22.50;;
29026;SDS011;16120;48.608;9.092;2023-03-02T17:52:14;103.03;;;21.60;;
29026;SDS011;16120;48.608;9.092;2023-03-02T17:56:10;114.83;;;23.70;;
29026;SDS011;16120;48.608;9.092;2023-03-02T18:00:08;110.10;;;22.33;;
29026;SDS011;16120;48.608;9.092;2023-03-02T18:04:04;106.27;;;21.37;;
29026;SDS011;16120;48.608;9.092;2023-03-02T18:07:59;112.60;;;22.73;;
29026;SDS011;16120;48.608;9.092;2023-03-02T18:11:54;106.70;;;22.50;;
29026;SDS011;16120;48.608;9.092;2023-03-02T18:15:51;104.65;;;21.13;;
29026;SDS011;16120;48.608;9.092;2023-03-02T18:19:46;107.50;;;23.43;;
29026;SDS011;16120;48.608;9.092;2023-03-02T18:23:41;110.10;;;24.07;;
29026;SDS011;16120;48.608;9.092;2023-03-02T18:27:36;108.23;;;23.00;;
29026;SDS011;16120;48.608;9.092;2023-03-02T18:31:33;110.27;;;23.23;;
29026;SDS011;16120;48.608;9.092;2023-03-02T18:35:28;109.93;;;21.23;;
29026;SDS011;16120;48.608;9.092;2023-03-02T18:39:23;109.10;;;23.30;;
29026;SDS011;16120;48.608;9.092;2023-03-02T18:43:19;107.70;;;23.50;;
29026;SDS011;16120;48.608;9.092;2023-03-02T18:47:15;114.47;;;22.03;;
29026;SDS011;16120;48.608;9.092;2023-03-02T18:51:11;108.57;;;24.10;;
29026;SDS011;16120;48.608;9.092;2023-03-02T18:55:07;110.73;;;23.50;;
29026;SDS011;16120;48.608;9.092;2023-03-02T18:59:02;121.00;;;22.27;;
29026;SDS011;16120;48.608;9.092;2023-03-02T19:02:59;108.30;;;22.10;;
29026;SDS011;16120;48.608;9.092;2023-03-02T19:06:54;115.10;;;24.40;;
29026;SDS011;16120;48.608;9.092;2023-03-02T19:10:50;115.97;;;27.30;;
29026;SDS011;16120;48.608;9.092;2023-03-02T19:14:45;122.80;;;27.13;;
29026;SDS011;16120;48.608;9.092;2023-03-02T19:18:42;113.23;;;26.57;;
29026;SDS011;16120;48.608;9.092;2023-03-02T19:22:37;109.50;;;23.57;;
29026;SDS011;16120;48.608;9.092;2023-03-02T19:26:33;113.22;;;25.02;;
29026;SDS011;16120;48.608;9.092;2023-03-02T19:30:28;109.87;;;24.87;;
29026;SDS011;16120;48.608;9.092;2023-03-02T19:34:25;123.63;;;26.90;;
29026;SDS011;16120;48.608;9.092;2023-03-02T19:38:20;110.60;;;24.37;;
29026;SDS011;16120;48.608;9.092;2023-03-02T19:42:15;127.07;;;29.17;;
29026;SDS011;16120;48.608;9.092;2023-03-02T19:46:10;121.10;;;27.43;;
29026;SDS011;16120;48.608;9.092;2023-03-02T19:50:08;118.70;;;26.90;;
29026;SDS011;16120;48.608;9.092;2023-03-02T19:54:03;113.97;;;26.30;;
29026;SDS011;16120;48.608;9.092;2023-03-02T19:57:58;117.20;;;26.70;;
29026;SDS011;16120;48.608;9.092;2023-03-02T20:01:53;112.85;;;26.13;;
29026;SDS011;16120;48.608;9.092;2023-03-02T20:05:52;112.43;;;25.43;;
29026;SDS011;16120;48.608;9.092;2023-03-02T20:09:47;120.03;;;27.37;;
29026;SDS011;16120;48.608;9.092;2023-03-02T20:13:43;113.50;;;25.60;;
29026;SDS011;16120;48.608;9.092;2023-03-02T20:17:38;112.07;;;25.30;;
29026;SDS011;16120;48.608;9.092;2023-03-02T20:21:34;113.00;;;25.43;;
29026;SDS011;16120;48.608;9.092;2023-03-02T20:25:30;112.30;;;25.50;;
29026;SDS011;16120;48.608;9.092;2023-03-02T20:29:25;116.37;;;25.23;;
29026;SDS011;16120;48.608;9.092;2023-03-02T20:33:25;127.73;;;27.20;;
29026;SDS011;16120;48.608;9.092;2023-03-02T20:37:22;118.33;;;30.20;;
29026;SDS011;16120;48.608;9.092;2023-03-02T20:41:17;121.70;;;27.60;;
29026;SDS011;16120;48.608;9.092;2023-03-02T20:45:12;116.80;;;25.17;;
29026;SDS011;16120;48.608;9.092;2023-03-02T20:49:09;120.20;;;28.20;;
29026;SDS011;16120;48.608;9.092;2023-03-02T20:53:06;112.33;;;25.67;;
29026;SDS011;16120;48.608;9.092;2023-03-02T20:57:02;121.30;;;28.27;;
29026;SDS011;16120;48.608;9.092;2023-03-02T21:00:57;120.23;;;25.43;;
29026;SDS011;16120;48.608;9.092;2023-03-02T21:04:52;117.77;;;27.37;;
29026;SDS011;16120;48.608;9.092;2023-03-02T21:08:49;119.18;;;27.33;;
29026;SDS011;16120;48.608;9.092;2023-03-02T21:12:45;127.87;;;38.90;;
29026;SDS011;16120;48.608;9.092;2023-03-02T21:16:41;132.17;;;38.93;;
29026;SDS011;16120;48.608;9.092;2023-03-02T21:20:37;126.70;;;33.40;;
29026;SDS011;16120;48.608;9.092;2023-03-02T21:24:33;118.90;;;27.17;;
29026;SDS011;16120;48.608;9.092;2023-03-02T21:28:28;115.13;;;27.63;;
29026;SDS011;16120;48.608;9.092;2023-03-02T21:32:23;115.57;;;26.57;;
29026;SDS011;16120;48.608;9.092;2023-03-02T21:36:21;119.23;;;27.53;;
29026;SDS011;16120;48.608;9.092;2023-03-02T21:40:18;114.73;;;27.87;;
29026;SDS011;16120;48.608;9.092;2023-03-02T21:44:14;116.80;;;27.23;;
29026;SDS011;16120;48.608;9.092;2023-03-02T21:48:09;127.67;;;34.23;;
29026;SDS011;16120;48.608;9.092;2023-03-02T21:52:06;126.80;;;34.63;;
29026;SDS011;16120;48.608;9.092;2023-03-02T21:56:03;137.63;;;38.83;;
29026;SDS011;16120;48.608;9.092;2023-03-02T21:59:58;135.20;;;38.50;;
29026;SDS011;16120;48.608;9.092;2023-03-02T22:03:53;139.27;;;36.57;;
29026;SDS011;16120;48.608;9.092;2023-03-02T22:07:48;133.17;;;35.83;;
29026;SDS011;16120;48.608;9.092;2023-03-02T22:11:45;120.78;;;30.38;;
29026;SDS011;16120;48.608;9.092;2023-03-02T22:15:41;116.87;;;28.50;;
29026;SDS011;16120;48.608;9.092;2023-03-02T22:19:36;120.30;;;28.17;;
29026;SDS011;16120;48.608;9.092;2023-03-02T22:23:31;117.10;;;26.80;;
29026;SDS011;16120;48.608;9.092;2023-03-02T22:27:28;114.27;;;26.37;;
29026;SDS011;16120;48.608;9.092;2023-03-02T22:31:24;120.80;;;26.93;;
29026;SDS011;16120;48.608;9.092;2023-03-02T22:35:20;122.27;;;27.43;;
29026;SDS011;16120;48.608;9.092;2023-03-02T22:39:16;117.20;;;27.80;;
29026;SDS011;16120;48.608;9.092;2023-03-02T22:43:17;110.50;;;25.90;;
29026;SDS011;16120;48.608;9.092;2023-03-02T22:47:14;120.40;;;27.03;;